This is the latest recevied weather packets stored in our database for station/object KD8YBJ. If no packets are shown the sender has not sent any weather packets the latest 10 day(s).
| Time | Temp. | Humidity | Pressure | Rain* | Wind** | Luminosity | Snow |
|---|---|---|---|---|---|---|---|
| 1777737017 | 8.33° C | 52% | 1018.7 hPa | 0 mm | - | 302 W/m² | - |
| 1777734017 | 7.22° C | 59% | 1018.5 hPa | 0 mm | - | 366 W/m² | - |
| 1777732218 | 6.67° C | 55% | 1018.9 hPa | 0 mm | - | 175 W/m² | - |
| 1777729215 | 5.56° C | 61% | 1018.6 hPa | 0 mm | - | 129 W/m² | - |
| 1777724427 | 2.78° C | 90% | 1018.9 hPa | 0 mm | - | 44 W/m² | - |
| 1777716017 | -0.56° C | 92% | 1019.3 hPa | 0 mm | - | 0 W/m² | - |
| 1777713038 | -0.56° C | 90% | 1019 hPa | 0 mm | - | 0 W/m² | - |
| 1777711817 | 0° C | 89% | 1018.9 hPa | 0 mm | - | 0 W/m² | - |
| 1777709417 | 0° C | 86% | 1019 hPa | 0 mm | - | 0 W/m² | - |
| 1777704019 | 2.78° C | 75% | 1019 hPa | 0 mm | - | 0 W/m² | - |
| 1777702220 | 3.33° C | 73% | 1018.9 hPa | 0 mm | - | 0 W/m² | - |
| 1777701620 | 3.33° C | 72% | 1018.9 hPa | 0 mm | - | 0 W/m² | - |
| 1777701020 | 3.33° C | 72% | 1019 hPa | 0 mm | - | 0 W/m² | - |
| 1777696823 | 3.89° C | 64% | 1018.8 hPa | 0 mm | - | 0 W/m² | - |
| 1777693822 | 3.89° C | 62% | 1018.7 hPa | 0 mm | - | 0 W/m² | - |
| 1777681218 | 5° C | 57% | 1017.7 hPa | 0 mm | - | 13 W/m² | - |
| 1777675818 | 6.11° C | 48% | 1017.2 hPa | 0 mm | - | 112 W/m² | - |
| 1777671616 | 8.33° C | 47% | 1016.3 hPa | 0 mm | - | 487 W/m² | - |
| 1777671016 | 7.78° C | 45% | 1016.3 hPa | 0 mm | - | 520 W/m² | - |
| 1777669816 | 7.78° C | 49% | 1016.3 hPa | 0 mm | - | 498 W/m² | - |
| 1777656017 | 7.22° C | 61% | 1015.4 hPa | 0 mm | - | 194 W/m² | - |
| 1777653019 | 7.22° C | 57% | 1015.8 hPa | 0 mm | - | 166 W/m² | - |
| 1777640416 | 3.89° C | 74% | 1015.3 hPa | 0 mm | - | 55 W/m² | - |
| 1777639816 | 3.33° C | 74% | 1015.4 hPa | 0 mm | - | 50 W/m² | - |
| 1777636817 | 3.33° C | 72% | 1015 hPa | 0 mm | - | 22 W/m² | - |
* Rain latest hour (hover to see other rain measurements)
** Current wind speed in m/s (hover to see current wind gust speed)